sensor_id;sensor_type;location;lat;lon;timestamp;P1;durP1;ratioP1;P2;durP2;ratioP2
2544;SDS011;36212;48.838;9.142;2023-09-08T15:37:21;3.10;;;2.90;;
2544;SDS011;36212;48.838;9.142;2023-09-08T15:39:53;2.90;;;2.70;;
2544;SDS011;36212;48.838;9.142;2023-09-08T15:42:25;3.00;;;2.80;;
2544;SDS011;36212;48.838;9.142;2023-09-08T15:44:57;3.17;;;2.97;;
2544;SDS011;36212;48.838;9.142;2023-09-08T15:47:29;3.13;;;2.93;;
2544;SDS011;36212;48.838;9.142;2023-09-08T15:50:04;3.40;;;3.20;;
2544;SDS011;36212;48.838;9.142;2023-09-08T15:52:43;3.57;;;3.37;;
2544;SDS011;36212;48.838;9.142;2023-09-08T15:55:15;3.37;;;3.17;;
2544;SDS011;36212;48.838;9.142;2023-09-08T15:57:52;3.60;;;3.40;;
2544;SDS011;36212;48.838;9.142;2023-09-08T16:00:30;3.27;;;3.07;;
2544;SDS011;36212;48.838;9.142;2023-09-08T16:03:05;3.20;;;3.00;;
2544;SDS011;36212;48.838;9.142;2023-09-08T16:05:38;2.80;;;2.60;;
2544;SDS011;36212;48.838;9.142;2023-09-08T16:08:10;3.37;;;3.13;;
2544;SDS011;36212;48.838;9.142;2023-09-08T16:10:42;2.77;;;2.67;;
2544;SDS011;36212;48.838;9.142;2023-09-08T16:13:18;2.90;;;2.70;;
2544;SDS011;36212;48.838;9.142;2023-09-08T16:15:52;3.47;;;3.27;;
2544;SDS011;36212;48.838;9.142;2023-09-08T16:18:24;3.50;;;3.20;;
2544;SDS011;36212;48.838;9.142;2023-09-08T16:20:57;3.23;;;3.03;;
2544;SDS011;36212;48.838;9.142;2023-09-08T16:23:30;3.43;;;3.13;;
2544;SDS011;36212;48.838;9.142;2023-09-08T16:26:02;3.17;;;2.97;;
2544;SDS011;36212;48.838;9.142;2023-09-08T16:28:35;3.10;;;2.90;;
2544;SDS011;36212;48.838;9.142;2023-09-08T16:31:07;3.07;;;2.87;;
2544;SDS011;36212;48.838;9.142;2023-09-08T16:33:40;3.30;;;3.10;;
2544;SDS011;36212;48.838;9.142;2023-09-08T16:36:12;3.03;;;2.83;;
2544;SDS011;36212;48.838;9.142;2023-09-08T16:38:44;3.30;;;3.10;;
2544;SDS011;36212;48.838;9.142;2023-09-08T16:41:16;3.30;;;3.10;;
2544;SDS011;36212;48.838;9.142;2023-09-08T16:43:52;3.40;;;3.10;;
2544;SDS011;36212;48.838;9.142;2023-09-08T16:46:33;3.40;;;3.20;;
2544;SDS011;36212;48.838;9.142;2023-09-08T16:49:08;3.00;;;2.80;;
2544;SDS011;36212;48.838;9.142;2023-09-08T16:51:49;3.07;;;2.87;;
2544;SDS011;36212;48.838;9.142;2023-09-08T16:54:26;3.50;;;3.20;;
2544;SDS011;36212;48.838;9.142;2023-09-08T16:56:59;2.97;;;2.77;;
2544;SDS011;36212;48.838;9.142;2023-09-08T16:59:33;3.80;;;3.50;;
2544;SDS011;36212;48.838;9.142;2023-09-08T17:02:06;3.80;;;3.50;;
2544;SDS011;36212;48.838;9.142;2023-09-08T17:04:39;3.53;;;3.33;;
2544;SDS011;36212;48.838;9.142;2023-09-08T17:07:16;3.17;;;2.97;;
2544;SDS011;36212;48.838;9.142;2023-09-08T17:09:48;3.77;;;3.47;;
2544;SDS011;36212;48.838;9.142;2023-09-08T17:12:22;3.40;;;3.20;;
2544;SDS011;36212;48.838;9.142;2023-09-08T17:14:56;3.43;;;3.13;;
2544;SDS011;36212;48.838;9.142;2023-09-08T17:17:29;3.20;;;3.00;;
2544;SDS011;36212;48.838;9.142;2023-09-08T17:20:01;3.23;;;3.03;;
2544;SDS011;36212;48.838;9.142;2023-09-08T17:22:35;3.27;;;3.07;;
2544;SDS011;36212;48.838;9.142;2023-09-08T17:25:07;3.40;;;3.10;;
2544;SDS011;36212;48.838;9.142;2023-09-08T17:27:42;4.30;;;4.00;;
2544;SDS011;36212;48.838;9.142;2023-09-08T17:30:15;3.40;;;3.20;;
2544;SDS011;36212;48.838;9.142;2023-09-08T17:32:47;3.00;;;2.80;;
2544;SDS011;36212;48.838;9.142;2023-09-08T17:35:19;3.33;;;3.13;;
2544;SDS011;36212;48.838;9.142;2023-09-08T17:37:51;3.20;;;3.00;;
2544;SDS011;36212;48.838;9.142;2023-09-08T17:40:25;3.20;;;3.00;;
2544;SDS011;36212;48.838;9.142;2023-09-08T17:42:57;3.90;;;3.60;;
2544;SDS011;36212;48.838;9.142;2023-09-08T17:45:29;3.30;;;3.10;;
2544;SDS011;36212;48.838;9.142;2023-09-08T17:48:02;3.20;;;3.00;;
2544;SDS011;36212;48.838;9.142;2023-09-08T17:50:35;3.00;;;2.83;;
2544;SDS011;36212;48.838;9.142;2023-09-08T17:53:08;3.20;;;3.00;;
2544;SDS011;36212;48.838;9.142;2023-09-08T17:55:40;3.07;;;2.87;;
2544;SDS011;36212;48.838;9.142;2023-09-08T17:58:12;3.83;;;3.47;;
2544;SDS011;36212;48.838;9.142;2023-09-08T18:00:46;3.50;;;3.30;;
2544;SDS011;36212;48.838;9.142;2023-09-08T18:03:20;4.47;;;3.90;;
2544;SDS011;36212;48.838;9.142;2023-09-08T18:05:53;3.50;;;3.20;;
2544;SDS011;36212;48.838;9.142;2023-09-08T18:08:27;3.60;;;3.30;;
2544;SDS011;36212;48.838;9.142;2023-09-08T18:11:01;3.40;;;3.20;;
2544;SDS011;36212;48.838;9.142;2023-09-08T18:13:35;4.40;;;4.10;;
2544;SDS011;36212;48.838;9.142;2023-09-08T18:16:10;6.30;;;3.60;;
2544;SDS011;36212;48.838;9.142;2023-09-08T18:18:46;3.63;;;3.43;;
2544;SDS011;36212;48.838;9.142;2023-09-08T18:21:19;3.80;;;3.60;;
2544;SDS011;36212;48.838;9.142;2023-09-08T18:23:51;3.70;;;3.40;;
2544;SDS011;36212;48.838;9.142;2023-09-08T18:26:23;3.50;;;3.30;;
2544;SDS011;36212;48.838;9.142;2023-09-08T18:28:56;4.70;;;3.63;;
2544;SDS011;36212;48.838;9.142;2023-09-08T18:31:28;4.50;;;4.20;;
2544;SDS011;36212;48.838;9.142;2023-09-08T18:34:02;4.83;;;4.43;;
2544;SDS011;36212;48.838;9.142;2023-09-08T18:36:35;5.50;;;5.10;;
2544;SDS011;36212;48.838;9.142;2023-09-08T18:39:07;5.90;;;4.93;;
2544;SDS011;36212;48.838;9.142;2023-09-08T18:41:43;5.97;;;5.50;;
2544;SDS011;36212;48.838;9.142;2023-09-08T18:44:15;7.40;;;6.70;;
2544;SDS011;36212;48.838;9.142;2023-09-08T18:46:48;7.40;;;6.80;;
2544;SDS011;36212;48.838;9.142;2023-09-08T18:49:20;7.83;;;7.17;;
2544;SDS011;36212;48.838;9.142;2023-09-08T18:51:58;8.20;;;6.30;;
2544;SDS011;36212;48.838;9.142;2023-09-08T18:54:30;8.20;;;7.50;;
2544;SDS011;36212;48.838;9.142;2023-09-08T18:57:19;14.30;;;13.00;;
2544;SDS011;36212;48.838;9.142;2023-09-08T18:59:51;12.00;;;10.90;;
2544;SDS011;36212;48.838;9.142;2023-09-08T19:02:24;13.80;;;11.97;;
2544;SDS011;36212;48.838;9.142;2023-09-08T19:04:57;10.37;;;9.47;;
2544;SDS011;36212;48.838;9.142;2023-09-08T19:07:29;7.73;;;7.07;;
2544;SDS011;36212;48.838;9.142;2023-09-08T19:10:02;7.30;;;6.70;;
2544;SDS011;36212;48.838;9.142;2023-09-08T19:12:35;5.63;;;5.20;;
2544;SDS011;36212;48.838;9.142;2023-09-08T19:15:08;5.40;;;5.00;;
2544;SDS011;36212;48.838;9.142;2023-09-08T19:17:41;5.57;;;5.17;;
2544;SDS011;36212;48.838;9.142;2023-09-08T19:20:13;5.60;;;5.10;;
2544;SDS011;36212;48.838;9.142;2023-09-08T19:22:46;5.63;;;5.07;;
2544;SDS011;36212;48.838;9.142;2023-09-08T19:25:18;6.20;;;5.70;;
2544;SDS011;36212;48.838;9.142;2023-09-08T19:27:51;6.37;;;5.87;;
2544;SDS011;36212;48.838;9.142;2023-09-08T19:30:24;6.13;;;5.70;;
2544;SDS011;36212;48.838;9.142;2023-09-08T19:32:57;5.67;;;5.27;;
2544;SDS011;36212;48.838;9.142;2023-09-08T19:35:32;5.80;;;5.30;;
2544;SDS011;36212;48.838;9.142;2023-09-08T19:38:08;5.77;;;5.30;;
2544;SDS011;36212;48.838;9.142;2023-09-08T19:40:41;6.27;;;5.77;;
2544;SDS011;36212;48.838;9.142;2023-09-08T19:43:14;5.67;;;5.23;;
2544;SDS011;36212;48.838;9.142;2023-09-08T19:45:46;5.60;;;5.10;;
2544;SDS011;36212;48.838;9.142;2023-09-08T19:48:19;5.43;;;4.93;;
2544;SDS011;36212;48.838;9.142;2023-09-08T19:50:51;4.80;;;4.40;;
2544;SDS011;36212;48.838;9.142;2023-09-08T19:53:24;5.90;;;5.40;;
2544;SDS011;36212;48.838;9.142;2023-09-08T19:55:57;5.77;;;5.37;;
2544;SDS011;36212;48.838;9.142;2023-09-08T19:58:31;4.93;;;4.63;;
2544;SDS011;36212;48.838;9.142;2023-09-08T20:01:04;6.70;;;5.47;;
2544;SDS011;36212;48.838;9.142;2023-09-08T20:03:40;5.80;;;5.10;;
2544;SDS011;36212;48.838;9.142;2023-09-08T20:06:13;5.90;;;5.40;;
2544;SDS011;36212;48.838;9.142;2023-09-08T20:08:47;6.37;;;5.87;;
2544;SDS011;36212;48.838;9.142;2023-09-08T20:11:20;5.80;;;5.23;;
2544;SDS011;36212;48.838;9.142;2023-09-08T20:13:53;6.10;;;5.60;;
2544;SDS011;36212;48.838;9.142;2023-09-08T20:16:25;5.13;;;4.77;;
2544;SDS011;36212;48.838;9.142;2023-09-08T20:18:58;5.40;;;5.00;;
2544;SDS011;36212;48.838;9.142;2023-09-08T20:21:31;5.87;;;5.30;;
2544;SDS011;36212;48.838;9.142;2023-09-08T20:24:04;6.17;;;5.07;;
2544;SDS011;36212;48.838;9.142;2023-09-08T20:26:38;6.20;;;5.70;;
2544;SDS011;36212;48.838;9.142;2023-09-08T20:29:11;6.27;;;5.77;;
2544;SDS011;36212;48.838;9.142;2023-09-08T20:31:45;6.27;;;5.77;;
2544;SDS011;36212;48.838;9.142;2023-09-08T20:34:18;6.87;;;5.60;;
2544;SDS011;36212;48.838;9.142;2023-09-08T20:36:50;6.30;;;5.80;;
2544;SDS011;36212;48.838;9.142;2023-09-08T20:39:24;6.80;;;6.20;;
2544;SDS011;36212;48.838;9.142;2023-09-08T20:41:57;6.83;;;6.23;;
2544;SDS011;36212;48.838;9.142;2023-09-08T20:44:30;7.03;;;6.43;;
2544;SDS011;36212;48.838;9.142;2023-09-08T20:47:03;6.73;;;6.13;;
2544;SDS011;36212;48.838;9.142;2023-09-08T20:49:36;6.07;;;5.67;;
2544;SDS011;36212;48.838;9.142;2023-09-08T20:52:09;6.00;;;5.50;;
2544;SDS011;36212;48.838;9.142;2023-09-08T20:54:44;6.40;;;5.80;;
2544;SDS011;36212;48.838;9.142;2023-09-08T20:57:16;5.97;;;5.47;;
2544;SDS011;36212;48.838;9.142;2023-09-08T20:59:50;6.80;;;6.10;;
2544;SDS011;36212;48.838;9.142;2023-09-08T21:02:23;6.40;;;5.93;;
2544;SDS011;36212;48.838;9.142;2023-09-08T21:04:55;6.80;;;6.20;;
2544;SDS011;36212;48.838;9.142;2023-09-08T21:07:28;5.90;;;5.40;;
2544;SDS011;36212;48.838;9.142;2023-09-08T21:10:00;6.37;;;5.77;;
2544;SDS011;36212;48.838;9.142;2023-09-08T21:12:33;6.60;;;6.00;;
2544;SDS011;36212;48.838;9.142;2023-09-08T21:15:05;6.83;;;6.23;;
2544;SDS011;36212;48.838;9.142;2023-09-08T21:17:39;6.50;;;6.00;;
2544;SDS011;36212;48.838;9.142;2023-09-08T21:20:11;7.40;;;6.80;;
2544;SDS011;36212;48.838;9.142;2023-09-08T21:22:45;7.00;;;6.40;;
2544;SDS011;36212;48.838;9.142;2023-09-08T21:25:18;6.90;;;5.90;;
2544;SDS011;36212;48.838;9.142;2023-09-08T21:27:50;7.80;;;7.03;;
2544;SDS011;36212;48.838;9.142;2023-09-08T21:30:22;7.10;;;6.60;;
2544;SDS011;36212;48.838;9.142;2023-09-08T21:32:55;7.73;;;7.03;;
2544;SDS011;36212;48.838;9.142;2023-09-08T21:35:27;8.43;;;7.63;;
2544;SDS011;36212;48.838;9.142;2023-09-08T21:38:01;7.63;;;6.90;;
2544;SDS011;36212;48.838;9.142;2023-09-08T21:40:37;8.53;;;6.80;;
2544;SDS011;36212;48.838;9.142;2023-09-08T21:43:11;7.63;;;6.93;;
2544;SDS011;36212;48.838;9.142;2023-09-08T21:45:43;7.57;;;6.87;;
2544;SDS011;36212;48.838;9.142;2023-09-08T21:48:33;6.60;;;6.00;;
2544;SDS011;36212;48.838;9.142;2023-09-08T21:51:07;7.70;;;6.83;;
2544;SDS011;36212;48.838;9.142;2023-09-08T21:53:41;7.27;;;6.67;;
2544;SDS011;36212;48.838;9.142;2023-09-08T21:56:13;7.50;;;6.90;;
2544;SDS011;36212;48.838;9.142;2023-09-08T21:58:46;6.73;;;6.13;;
2544;SDS011;36212;48.838;9.142;2023-09-08T22:01:19;7.07;;;6.47;;
2544;SDS011;36212;48.838;9.142;2023-09-08T22:03:51;7.20;;;6.60;;
2544;SDS011;36212;48.838;9.142;2023-09-08T22:06:24;6.67;;;6.17;;
2544;SDS011;36212;48.838;9.142;2023-09-08T22:08:56;7.83;;;7.13;;
2544;SDS011;36212;48.838;9.142;2023-09-08T22:11:29;7.67;;;6.97;;
2544;SDS011;36212;48.838;9.142;2023-09-08T22:14:02;8.67;;;7.87;;
2544;SDS011;36212;48.838;9.142;2023-09-08T22:16:34;8.30;;;7.50;;
2544;SDS011;36212;48.838;9.142;2023-09-08T22:19:08;7.20;;;6.70;;
2544;SDS011;36212;48.838;9.142;2023-09-08T22:21:41;13.73;;;7.37;;
2544;SDS011;36212;48.838;9.142;2023-09-08T22:24:16;7.27;;;6.67;;
2544;SDS011;36212;48.838;9.142;2023-09-08T22:26:49;7.50;;;6.80;;
2544;SDS011;36212;48.838;9.142;2023-09-08T22:29:21;7.93;;;7.13;;
2544;SDS011;36212;48.838;9.142;2023-09-08T22:31:54;6.67;;;6.17;;
2544;SDS011;36212;48.838;9.142;2023-09-08T22:34:27;7.60;;;6.90;;
2544;SDS011;36212;48.838;9.142;2023-09-08T22:36:59;7.90;;;7.10;;
2544;SDS011;36212;48.838;9.142;2023-09-08T22:39:32;6.87;;;6.37;;
2544;SDS011;36212;48.838;9.142;2023-09-08T22:42:05;7.33;;;6.73;;
2544;SDS011;36212;48.838;9.142;2023-09-08T22:44:37;7.60;;;6.90;;
2544;SDS011;36212;48.838;9.142;2023-09-08T22:47:09;8.17;;;7.47;;
2544;SDS011;36212;48.838;9.142;2023-09-08T22:49:53;6.93;;;6.40;;
2544;SDS011;36212;48.838;9.142;2023-09-08T22:52:43;9.50;;;8.10;;
2544;SDS011;36212;48.838;9.142;2023-09-08T22:55:16;6.70;;;6.00;;
2544;SDS011;36212;48.838;9.142;2023-09-08T22:57:56;7.47;;;6.87;;
2544;SDS011;36212;48.838;9.142;2023-09-08T23:00:28;7.07;;;6.47;;
2544;SDS011;36212;48.838;9.142;2023-09-08T23:03:01;7.63;;;6.97;;
2544;SDS011;36212;48.838;9.142;2023-09-08T23:05:34;7.50;;;6.90;;
2544;SDS011;36212;48.838;9.142;2023-09-08T23:08:06;8.10;;;7.40;;
2544;SDS011;36212;48.838;9.142;2023-09-08T23:10:38;10.87;;;7.40;;
2544;SDS011;36212;48.838;9.142;2023-09-08T23:13:10;8.50;;;7.80;;
2544;SDS011;36212;48.838;9.142;2023-09-08T23:15:43;10.43;;;7.97;;
2544;SDS011;36212;48.838;9.142;2023-09-08T23:18:15;8.10;;;7.40;;
2544;SDS011;36212;48.838;9.142;2023-09-08T23:20:48;7.80;;;7.10;;
2544;SDS011;36212;48.838;9.142;2023-09-08T23:23:20;7.93;;;7.10;;
2544;SDS011;36212;48.838;9.142;2023-09-08T23:25:53;8.67;;;7.77;;
2544;SDS011;36212;48.838;9.142;2023-09-08T23:28:25;8.40;;;7.50;;
2544;SDS011;36212;48.838;9.142;2023-09-08T23:30:57;8.03;;;7.33;;
2544;SDS011;36212;48.838;9.142;2023-09-08T23:33:30;9.07;;;8.00;;
2544;SDS011;36212;48.838;9.142;2023-09-08T23:36:03;10.13;;;9.13;;
2544;SDS011;36212;48.838;9.142;2023-09-08T23:38:35;8.37;;;7.57;;
2544;SDS011;36212;48.838;9.142;2023-09-08T23:41:08;8.90;;;8.10;;
2544;SDS011;36212;48.838;9.142;2023-09-08T23:43:40;11.47;;;7.77;;
2544;SDS011;36212;48.838;9.142;2023-09-08T23:46:12;10.13;;;9.13;;
2544;SDS011;36212;48.838;9.142;2023-09-08T23:48:44;8.43;;;7.73;;
2544;SDS011;36212;48.838;9.142;2023-09-08T23:51:16;9.23;;;8.33;;
2544;SDS011;36212;48.838;9.142;2023-09-08T23:53:49;8.93;;;8.13;;
2544;SDS011;36212;48.838;9.142;2023-09-08T23:56:21;9.17;;;8.23;;
2544;SDS011;36212;48.838;9.142;2023-09-08T23:58:53;7.93;;;7.13;;
